Time;durP1;ratioP1;P1;durP2;ratioP2;P2;SDS_P1;SDS_P2;PMS_P1;PMS_P2;Temp;Humidity;BMP_temperature;BMP_pressure;BME280_temperature;BME280_humidity;BME280_pressure;Samples;Min_cycle;Max_cycle;Signal;HPM_P1;HPM_P2
2022/12/18 00:00:29;;;;;;;;;;;;;;;-4.69;95.12;102816.66;5085904;28;19915;-55
2022/12/18 00:02:55;;;;;;;;;;;;;;;-4.71;95.07;102811.50;5086442;28;19923;-55
2022/12/18 00:05:20;;;;;;;;;;;;;;;-4.72;95.09;102803.75;5090013;28;20431;-58
2022/12/18 00:07:45;;;;;;;;;;;;;;;-4.74;95.14;102803.78;5092475;28;19923;-57
2022/12/18 00:10:10;;;;;;;;;;;;;;;-4.76;95.05;102804.69;5081922;28;20407;-58
2022/12/18 00:12:36;;;;;;;;;;;;;;;-4.81;94.86;102809.09;5088869;28;19923;-55
2022/12/18 00:15:01;;;;;;;;;;;;;;;-4.89;94.89;102792.81;5086817;28;19977;-54
2022/12/18 00:17:26;;;;;;;;;;;;;;;-5.00;94.72;102786.06;5091833;28;19959;-56
2022/12/18 00:19:51;;;;;;;;;;;;;;;-5.14;94.43;102772.47;5086857;28;20539;-57
2022/12/18 00:22:16;;;;;;;;;;;;;;;-5.19;94.47;102776.00;5091081;28;20272;-55
2022/12/18 00:24:41;;;;;;;;;;;;;;;-5.19;94.46;102778.59;5076376;28;19923;-55
2022/12/18 00:27:07;;;;;;;;;;;;;;;-5.17;94.54;102787.19;5084301;28;20287;-55
2022/12/18 00:29:32;;;;;;;;;;;;;;;-5.20;94.38;102780.34;5088915;28;19970;-56
2022/12/18 00:31:57;;;;;;;;;;;;;;;-5.20;94.41;102776.88;5087832;28;20007;-56
2022/12/18 00:34:22;;;;;;;;;;;;;;;-5.21;94.50;102765.66;5083972;28;20373;-55
2022/12/18 00:36:47;;;;;;;;;;;;;;;-5.21;94.32;102769.97;5085004;28;20334;-55
2022/12/18 00:39:13;;;;;;;;;;;;;;;-5.25;94.32;102770.91;5089412;28;19951;-59
2022/12/18 00:44:22;;;;;;;;;;;;;;;-5.32;94.27;102775.31;5077768;28;21209;-52
2022/12/18 00:46:47;;;;;;;;;;;;;;;-5.30;94.28;102777.00;5100519;28;19916;-58
2022/12/18 00:49:13;;;;;;;;;;;;;;;-5.30;94.20;102761.47;5088300;28;19916;-57
2022/12/18 00:51:39;;;;;;;;;;;;;;;-5.30;94.48;102769.22;5092914;28;19981;-56
2022/12/18 00:54:04;;;;;;;;;;;;;;;-5.30;94.20;102758.88;5086563;28;19924;-56
2022/12/18 00:56:29;;;;;;;;;;;;;;;-5.31;94.32;102759.75;5082081;28;19922;-55
2022/12/18 00:58:55;;;;;;;;;;;;;;;-5.32;94.30;102762.38;5083290;28;20272;-55
2022/12/18 01:01:20;;;;;;;;;;;;;;;-5.33;94.21;102758.91;5089743;28;19916;-57
2022/12/18 01:03:46;;;;;;;;;;;;;;;-5.34;94.32;102758.94;5086876;28;19917;-57
2022/12/18 01:06:12;;;;;;;;;;;;;;;-5.37;94.16;102767.63;5090937;28;20371;-53
2022/12/18 01:08:38;;;;;;;;;;;;;;;-5.37;94.29;102772.78;5085294;28;19917;-56
2022/12/18 01:11:08;;;;;;;;;;;;;;;-5.36;94.21;102784.00;5087211;28;19947;-60
2022/12/18 01:13:33;;;;;;;;;;;;;;;-5.35;94.26;102791.75;5086395;28;19927;-58
2022/12/18 01:15:58;;;;;;;;;;;;;;;-5.32;94.17;102796.88;5088330;28;19916;-57
2022/12/18 01:18:23;;;;;;;;;;;;;;;-5.31;94.31;102785.66;5084621;28;19942;-56
2022/12/18 01:20:49;;;;;;;;;;;;;;;-5.30;94.27;102795.13;5079313;28;20006;-55
2022/12/18 01:23:14;;;;;;;;;;;;;;;-5.32;94.18;102785.66;5085941;28;20410;-58
2022/12/18 01:25:39;;;;;;;;;;;;;;;-5.34;94.23;102779.66;5085913;28;19955;-54
2022/12/18 01:28:04;;;;;;;;;;;;;;;-5.36;94.20;102781.41;5081024;28;20558;-58
2022/12/18 01:30:29;;;;;;;;;;;;;;;-5.37;94.16;102785.75;5085523;28;19948;-56
2022/12/18 01:32:54;;;;;;;;;;;;;;;-5.38;93.98;102796.13;5083659;28;19920;-57
2022/12/18 01:35:20;;;;;;;;;;;;;;;-5.40;94.09;102788.38;5086638;28;19923;-55
2022/12/18 01:37:45;;;;;;;;;;;;;;;-5.41;94.22;102772.88;5083509;28;19932;-58
2022/12/18 01:40:10;;;;;;;;;;;;;;;-5.44;94.16;102767.72;5080132;28;19922;-56
2022/12/18 01:42:35;;;;;;;;;;;;;;;-5.46;94.08;102766.91;5084617;28;19916;-57
2022/12/18 01:45:01;;;;;;;;;;;;;;;-5.46;94.01;102769.47;5083608;28;20537;-60
2022/12/18 01:47:38;;;;;;;;;;;;;;;-5.46;93.97;102772.94;5082431;28;19969;-57
2022/12/18 01:50:09;;;;;;;;;;;;;;;-5.46;94.05;102769.47;5082284;28;19989;-58
2022/12/18 01:52:34;;;;;;;;;;;;;;;-5.45;94.15;102776.38;5079168;28;20567;-58
2022/12/18 01:55:00;;;;;;;;;;;;;;;-5.44;94.05;102785.84;5085074;28;19931;-56
2022/12/18 01:57:26;;;;;;;;;;;;;;;-5.44;94.02;102775.50;5081251;28;19934;-57
2022/12/18 01:59:52;;;;;;;;;;;;;;;-5.44;94.07;102778.09;5079910;28;19920;-59
2022/12/18 02:02:18;;;;;;;;;;;;;;;-5.45;93.86;102778.97;5077017;28;19923;-58
2022/12/18 02:04:43;;;;;;;;;;;;;;;-5.47;94.00;102770.38;5084072;28;19916;-60
2022/12/18 02:07:14;;;;;;;;;;;;;;;-5.47;93.91;102771.22;5082926;28;20745;-55
2022/12/18 02:09:45;;;;;;;;;;;;;;;-5.49;93.97;102767.81;5079336;28;19920;-60
2022/12/18 02:12:16;;;;;;;;;;;;;;;-5.51;93.94;102761.75;5078700;28;20016;-56
2022/12/18 02:14:44;;;;;;;;;;;;;;;-5.51;93.86;102760.91;5081227;28;19916;-59
2022/12/18 02:17:13;;;;;;;;;;;;;;;-5.52;93.89;102760.03;5079744;28;19927;-56
2022/12/18 02:19:45;;;;;;;;;;;;;;;-5.51;93.85;102764.34;5082038;28;19989;-56
2022/12/18 02:22:20;;;;;;;;;;;;;;;-5.50;93.92;102760.03;5079264;28;20388;-58
2022/12/18 02:24:48;;;;;;;;;;;;;;;-5.51;93.94;102755.72;5080642;28;19923;-55
2022/12/18 02:27:14;;;;;;;;;;;;;;;-5.52;93.85;102754.88;5084547;28;19923;-54
2022/12/18 02:29:49;;;;;;;;;;;;;;;-5.55;93.74;102765.25;5081360;28;19923;-56
2022/12/18 02:32:17;;;;;;;;;;;;;;;-5.57;93.76;102763.56;5083253;28;20368;-56
2022/12/18 02:34:43;;;;;;;;;;;;;;;-5.61;93.68;102761.03;5082748;28;19997;-59
2022/12/18 02:37:11;;;;;;;;;;;;;;;-5.61;93.63;102765.34;5082960;28;19976;-56
2022/12/18 02:39:37;;;;;;;;;;;;;;;-5.64;93.60;102767.97;5081993;28;20032;-57
2022/12/18 02:42:07;;;;;;;;;;;;;;;-5.65;93.42;102761.09;5082551;28;19923;-58
2022/12/18 02:44:32;;;;;;;;;;;;;;;-5.64;93.47;102755.03;5079286;28;20634;-55
2022/12/18 02:46:58;;;;;;;;;;;;;;;-5.64;93.60;102747.28;5078785;28;19916;-55
2022/12/18 02:49:36;;;;;;;;;;;;;;;-5.65;93.59;102745.56;5080649;28;19930;-56
2022/12/18 02:52:01;;;;;;;;;;;;;;;-5.67;93.41;102742.16;5082809;28;19924;-60
2022/12/18 02:54:36;;;;;;;;;;;;;;;-5.69;93.40;102737.00;5082077;28;19965;-56
2022/12/18 02:57:08;;;;;;;;;;;;;;;-5.71;93.35;102738.75;5080293;28;19928;-59
2022/12/18 02:59:38;;;;;;;;;;;;;;;-5.71;93.34;102753.41;5081923;28;20402;-55
2022/12/18 03:02:03;;;;;;;;;;;;;;;-5.71;93.35;102746.50;5078081;28;19931;-58
2022/12/18 03:04:34;;;;;;;;;;;;;;;-5.71;93.45;102743.06;5083353;28;19916;-58
2022/12/18 03:07:03;;;;;;;;;;;;;;;-5.73;93.34;102744.81;5080386;28;19916;-54
2022/12/18 03:09:30;;;;;;;;;;;;;;;-5.74;93.47;102740.53;5081886;28;19920;-56
2022/12/18 03:14:45;;;;;;;;;;;;;;;-5.77;93.33;102731.06;5079309;28;19931;-60
2022/12/18 03:17:14;;;;;;;;;;;;;;;-5.78;93.17;102731.06;5082331;28;19920;-56
2022/12/18 03:19:41;;;;;;;;;;;;;;;-5.76;93.25;102727.59;5080677;28;19942;-58
2022/12/18 03:22:07;;;;;;;;;;;;;;;-5.76;93.19;102731.94;5082011;28;19974;-59
2022/12/18 03:24:33;;;;;;;;;;;;;;;-5.76;93.15;102729.34;5081815;28;19924;-56
2022/12/18 03:27:02;;;;;;;;;;;;;;;-5.78;93.13;102724.19;5081540;28;20637;-59
2022/12/18 03:29:30;;;;;;;;;;;;;;;-5.76;93.10;102716.41;5082155;28;20298;-55
2022/12/18 03:32:00;;;;;;;;;;;;;;;-5.77;93.15;102725.03;5081466;28;20621;-52
2022/12/18 03:34:34;;;;;;;;;;;;;;;-5.78;93.17;102728.47;5080432;28;20007;-54
2022/12/18 03:37:02;;;;;;;;;;;;;;;-5.81;93.07;102719.03;5082612;28;19920;-56
2022/12/18 03:39:27;;;;;;;;;;;;;;;-5.83;93.07;102714.75;5080822;28;19973;-56
2022/12/18 03:41:52;;;;;;;;;;;;;;;-5.84;92.89;102718.22;5082166;28;20010;-56
2022/12/18 03:44:26;;;;;;;;;;;;;;;-5.85;93.00;102719.09;5083351;28;19924;-55
2022/12/18 03:47:03;;;;;;;;;;;;;;;-5.86;92.88;102719.97;5083130;28;19923;-53
2022/12/18 03:49:37;;;;;;;;;;;;;;;-5.86;93.10;102714.78;5083508;28;19974;-58
2022/12/18 03:52:05;;;;;;;;;;;;;;;-5.85;92.97;102708.75;5082405;28;19950;-58
2022/12/18 03:54:31;;;;;;;;;;;;;;;-5.85;92.99;102698.41;5088514;28;19965;-54
2022/12/18 03:57:04;;;;;;;;;;;;;;;-5.85;93.03;102696.66;5083899;28;19924;-54
2022/12/18 03:59:30;;;;;;;;;;;;;;;-5.86;92.97;102696.69;5084397;28;19916;-57
2022/12/18 04:01:57;;;;;;;;;;;;;;;-5.86;92.95;102692.38;5078644;28;19916;-56
2022/12/18 04:04:24;;;;;;;;;;;;;;;-5.87;92.96;102692.38;5086741;28;20058;-56
2022/12/18 04:06:50;;;;;;;;;;;;;;;-5.89;92.80;102687.25;5086636;28;20302;-54
2022/12/18 04:09:15;;;;;;;;;;;;;;;-5.89;92.80;102681.25;5084200;28;20102;-58
2022/12/18 04:11:43;;;;;;;;;;;;;;;-5.93;92.86;102676.13;5087387;28;20401;-58
2022/12/18 04:14:08;;;;;;;;;;;;;;;-5.95;92.67;102672.69;5080445;28;19920;-54
2022/12/18 04:16:33;;;;;;;;;;;;;;;-5.95;92.65;102666.66;5085973;28;19920;-57
2022/12/18 04:18:58;;;;;;;;;;;;;;;-5.96;92.79;102672.72;5086278;28;19916;-57
2022/12/18 04:21:24;;;;;;;;;;;;;;;-5.94;92.77;102671.81;5081960;28;19924;-58
2022/12/18 04:23:49;;;;;;;;;;;;;;;-5.94;92.65;102674.41;5080427;28;20380;-57
2022/12/18 04:26:14;;;;;;;;;;;;;;;-5.93;92.63;102676.13;5087013;28;19916;-55
2022/12/18 04:28:39;;;;;;;;;;;;;;;-5.95;92.64;102667.53;5082114;28;19924;-55
2022/12/18 04:31:04;;;;;;;;;;;;;;;-5.97;92.60;102666.69;5079733;28;19924;-57
2022/12/18 04:33:30;;;;;;;;;;;;;;;-5.98;92.63;102674.47;5086355;28;19924;-54
2022/12/18 04:35:55;;;;;;;;;;;;;;;-5.98;92.64;102680.50;5082959;28;19920;-55
2022/12/18 04:38:20;;;;;;;;;;;;;;;-5.99;92.50;102677.94;5082011;28;19928;-54
2022/12/18 04:40:45;;;;;;;;;;;;;;;-5.97;92.53;102686.53;5084980;28;19969;-53
2022/12/18 04:43:10;;;;;;;;;;;;;;;-5.98;92.61;102690.84;5078408;28;19916;-56
2022/12/18 04:45:36;;;;;;;;;;;;;;;-5.98;92.65;102696.00;5085557;28;19969;-58
2022/12/18 04:48:02;;;;;;;;;;;;;;;-5.97;92.66;102696.88;5081725;28;19930;-56
2022/12/18 04:50:28;;;;;;;;;;;;;;;-5.96;92.67;102690.81;5081364;28;19925;-60
2022/12/18 04:52:53;;;;;;;;;;;;;;;-5.97;92.56;102708.06;5082524;28;19916;-56
2022/12/18 04:55:18;;;;;;;;;;;;;;;-5.97;92.63;102705.47;5080567;28;19922;-57
2022/12/18 04:57:43;;;;;;;;;;;;;;;-5.97;92.42;102710.66;5084333;28;20342;-58
2022/12/18 05:00:09;;;;;;;;;;;;;;;-5.98;92.60;102719.28;5083044;28;19971;-56
2022/12/18 05:02:34;;;;;;;;;;;;;;;-6.00;92.60;102715.00;5091170;28;20324;-57
2022/12/18 05:04:59;;;;;;;;;;;;;;;-6.01;92.48;102716.75;5090222;28;19947;-54
2022/12/18 05:07:25;;;;;;;;;;;;;;;-6.03;92.57;102720.22;5091978;28;20406;-54
2022/12/18 05:09:50;;;;;;;;;;;;;;;-6.04;92.41;102721.09;5087131;28;19916;-57
2022/12/18 05:12:15;;;;;;;;;;;;;;;-6.08;92.35;102717.66;5088101;28;20686;-54
2022/12/18 05:14:40;;;;;;;;;;;;;;;-6.07;92.48;102718.53;5090126;28;19913;-58
2022/12/18 05:17:05;;;;;;;;;;;;;;;-6.09;92.38;102720.28;5084657;28;20533;-54
2022/12/18 05:19:30;;;;;;;;;;;;;;;-6.09;92.34;102725.44;5088835;28;19913;-57
2022/12/18 05:21:56;;;;;;;;;;;;;;;-6.11;92.43;102722.88;5080220;28;20054;-55
2022/12/18 05:24:21;;;;;;;;;;;;;;;-6.10;92.48;102721.16;5088560;28;19920;-55
2022/12/18 05:26:46;;;;;;;;;;;;;;;-6.11;92.22;102717.72;5090861;28;19912;-54
2022/12/18 05:29:12;;;;;;;;;;;;;;;-6.11;92.34;102712.53;5077646;28;19923;-56
2022/12/18 05:31:37;;;;;;;;;;;;;;;-6.11;92.31;102701.34;5083418;28;20406;-58
2022/12/18 05:34:02;;;;;;;;;;;;;;;-6.10;92.17;102701.31;5080522;28;19970;-57
2022/12/18 05:36:28;;;;;;;;;;;;;;;-6.11;92.26;102699.59;5086976;28;19958;-55
2022/12/18 05:38:53;;;;;;;;;;;;;;;-6.12;92.21;102713.41;5089705;28;20386;-55
2022/12/18 05:41:18;;;;;;;;;;;;;;;-6.12;92.19;102715.13;5081107;28;19913;-55
2022/12/18 05:43:43;;;;;;;;;;;;;;;-6.13;92.13;102709.13;5093394;28;19920;-60
2022/12/18 05:46:12;;;;;;;;;;;;;;;-6.13;92.01;102706.53;5088075;28;19919;-57
2022/12/18 05:48:38;;;;;;;;;;;;;;;-6.14;91.93;102697.06;5091746;28;19920;-54
2022/12/18 05:51:04;;;;;;;;;;;;;;;-6.12;91.95;102687.56;5083363;28;20387;-56
2022/12/18 05:53:29;;;;;;;;;;;;;;;-6.11;92.02;102686.69;5084925;28;20426;-56
2022/12/18 05:55:59;;;;;;;;;;;;;;;-6.09;92.11;102682.34;5087210;28;19916;-58
2022/12/18 05:58:24;;;;;;;;;;;;;;;-6.10;91.88;102675.47;5082765;28;19931;-58
2022/12/18 06:00:49;;;;;;;;;;;;;;;-6.09;92.08;102676.31;5084370;28;19916;-58
2022/12/18 06:03:14;;;;;;;;;;;;;;;-6.09;91.89;102674.59;5080491;28;19920;-56
2022/12/18 06:05:41;;;;;;;;;;;;;;;-6.08;91.93;102681.47;5086841;28;19916;-56
2022/12/18 06:08:06;;;;;;;;;;;;;;;-6.06;92.05;102679.75;5086873;28;19916;-57
2022/12/18 06:10:32;;;;;;;;;;;;;;;-6.03;92.05;102681.44;5082581;28;19947;-55
2022/12/18 06:12:57;;;;;;;;;;;;;;;-6.02;92.10;102671.06;5086051;28;20284;-56
2022/12/18 06:15:22;;;;;;;;;;;;;;;-6.01;92.10;102669.34;5082112;28;20004;-59
2022/12/18 06:17:47;;;;;;;;;;;;;;;-6.03;92.04;102665.91;5078168;28;19928;-59
2022/12/18 06:20:12;;;;;;;;;;;;;;;-6.03;92.00;102666.78;5085776;28;19916;-54
2022/12/18 06:22:38;;;;;;;;;;;;;;;-6.02;91.96;102677.97;5083816;28;19938;-57
2022/12/18 06:25:03;;;;;;;;;;;;;;;-6.01;91.90;102682.28;5082066;28;19924;-56
2022/12/18 06:27:28;;;;;;;;;;;;;;;-6.03;91.89;102690.03;5082148;28;19920;-58
2022/12/18 06:29:53;;;;;;;;;;;;;;;-6.02;91.88;102691.75;5081239;28;20364;-56
2022/12/18 06:32:19;;;;;;;;;;;;;;;-6.01;91.74;102688.28;5081678;28;20529;-58
2022/12/18 06:34:44;;;;;;;;;;;;;;;-6.02;91.95;102691.75;5083344;28;19916;-56
2022/12/18 06:37:09;;;;;;;;;;;;;;;-6.00;91.72;102676.22;5080979;28;20425;-57
2022/12/18 06:39:34;;;;;;;;;;;;;;;-6.01;91.92;102679.69;5083460;28;19916;-56
2022/12/18 06:41:59;;;;;;;;;;;;;;;-6.01;91.80;102672.78;5082786;28;19934;-58
2022/12/18 06:44:24;;;;;;;;;;;;;;;-6.01;91.87;102669.34;5080616;28;19920;-58
2022/12/18 06:46:50;;;;;;;;;;;;;;;-6.02;91.74;102665.91;5083608;28;20008;-60
2022/12/18 06:49:15;;;;;;;;;;;;;;;-6.04;91.71;102659.03;5079294;28;19917;-55
2022/12/18 06:51:41;;;;;;;;;;;;;;;-6.06;91.62;102658.19;5083032;28;20007;-59
2022/12/18 06:54:06;;;;;;;;;;;;;;;-6.08;91.58;102660.78;5080255;28;20014;-56
2022/12/18 06:56:31;;;;;;;;;;;;;;;-6.10;91.57;102657.34;5080998;28;20541;-58
2022/12/18 06:58:56;;;;;;;;;;;;;;;-6.11;91.71;102655.66;5080205;28;19921;-57
2022/12/18 07:01:22;;;;;;;;;;;;;;;-6.11;91.67;102659.97;5082559;28;20008;-54
2022/12/18 07:03:51;;;;;;;;;;;;;;;-6.12;91.70;102659.13;5080670;28;19942;-58
2022/12/18 07:06:17;;;;;;;;;;;;;;;-6.10;91.67;102652.19;5083534;28;19920;-56
2022/12/18 07:08:43;;;;;;;;;;;;;;;-6.12;91.79;102651.34;5078836;28;19920;-59
2022/12/18 07:11:08;;;;;;;;;;;;;;;-6.13;91.67;102641.03;5080673;28;19961;-58
2022/12/18 07:13:33;;;;;;;;;;;;;;;-6.18;91.77;102638.50;5077472;28;19917;-55
2022/12/18 07:16:05;;;;;;;;;;;;;;;-6.20;91.72;102635.09;5078686;28;19969;-58
2022/12/18 07:18:30;;;;;;;;;;;;;;;-6.22;91.63;102625.66;5079219;28;19921;-58
2022/12/18 07:20:55;;;;;;;;;;;;;;;-6.25;91.65;102626.53;5084702;28;19973;-55
2022/12/18 07:23:20;;;;;;;;;;;;;;;-6.27;91.78;102620.53;5080341;28;20038;-58
2022/12/18 07:25:45;;;;;;;;;;;;;;;-6.29;91.53;102619.72;5078085;28;20315;-55
2022/12/18 07:28:12;;;;;;;;;;;;;;;-6.28;91.72;102613.66;5074743;28;20042;-59
2022/12/18 07:30:38;;;;;;;;;;;;;;;-6.30;91.76;102605.06;5078116;28;19930;-60
2022/12/18 07:33:03;;;;;;;;;;;;;;;-6.29;91.74;102599.03;5081404;28;20003;-54
2022/12/18 07:35:28;;;;;;;;;;;;;;;-6.30;91.54;102595.59;5090391;28;19960;-58
2022/12/18 07:37:53;;;;;;;;;;;;;;;-6.30;91.54;102594.75;5083023;28;20375;-58
2022/12/18 07:40:18;;;;;;;;;;;;;;;-6.32;91.67;102597.34;5082803;28;19924;-56
2022/12/18 07:42:44;;;;;;;;;;;;;;;-6.30;91.62;102592.16;5076688;28;19920;-56
2022/12/18 07:45:09;;;;;;;;;;;;;;;-6.30;91.49;102593.00;5077082;28;19973;-59
2022/12/18 07:47:35;;;;;;;;;;;;;;;-6.26;91.62;102580.88;5081678;28;20355;-54
2022/12/18 07:50:01;;;;;;;;;;;;;;;-6.24;91.49;102576.56;5075155;28;19927;-58
2022/12/18 07:52:26;;;;;;;;;;;;;;;-6.21;91.37;102571.34;5081895;28;19916;-58
2022/12/18 07:54:51;;;;;;;;;;;;;;;-6.19;91.26;102563.56;5080741;28;19916;-57
2022/12/18 07:57:17;;;;;;;;;;;;;;;-6.18;91.35;102560.09;5084428;28;19920;-56
2022/12/18 07:59:42;;;;;;;;;;;;;;;-6.21;91.26;102555.81;5079112;28;19922;-57
2022/12/18 08:02:08;;;;;;;;;;;;;;;-6.17;91.48;102565.25;5079945;28;19916;-57
2022/12/18 08:04:35;;;;;;;;;;;;;;;-6.14;91.21;102565.19;5085339;28;19948;-58
2022/12/18 08:07:02;;;;;;;;;;;;;;;-6.14;91.38;102565.19;5081247;28;20221;-55
2022/12/18 08:09:28;;;;;;;;;;;;;;;-6.01;91.32;102565.88;5081648;28;19916;-58
2022/12/18 08:11:53;;;;;;;;;;;;;;;-6.03;91.19;102563.34;5081814;28;20413;-58
2022/12/18 08:14:18;;;;;;;;;;;;;;;-6.02;91.42;102577.13;5075627;28;19967;-59
2022/12/18 08:16:43;;;;;;;;;;;;;;;-5.99;91.40;102575.34;5076070;28;19920;-61
2022/12/18 08:19:11;;;;;;;;;;;;;;;-5.96;91.46;102582.19;5079409;28;19977;-54
2022/12/18 08:21:36;;;;;;;;;;;;;;;-5.91;91.44;102585.56;5078090;28;19943;-60
2022/12/18 08:24:02;;;;;;;;;;;;;;;-5.86;91.30;102585.44;5076805;28;20213;-58
2022/12/18 08:26:28;;;;;;;;;;;;;;;-5.83;91.40;102588.00;5084277;28;21156;-57
2022/12/18 08:28:54;;;;;;;;;;;;;;;-5.80;91.55;102587.94;5084678;28;20534;-58
2022/12/18 08:31:20;;;;;;;;;;;;;;;-5.76;91.47;102580.13;5082644;28;19938;-58
2022/12/18 08:33:47;;;;;;;;;;;;;;;-5.68;91.47;102582.59;5083245;28;19916;-58
2022/12/18 08:36:12;;;;;;;;;;;;;;;-5.64;91.56;102586.84;5078186;28;19926;-59
2022/12/18 08:38:38;;;;;;;;;;;;;;;-5.70;91.68;102559.34;5079274;28;20472;-59
2022/12/18 08:41:04;;;;;;;;;;;;;;;-5.54;91.52;102569.41;5081327;28;19931;-56
2022/12/18 08:46:16;;;;;;;;;;;;;;;-5.46;91.51;102558.09;5082894;28;19945;-57
2022/12/18 08:48:41;;;;;;;;;;;;;;;-5.37;91.50;102555.31;5084962;28;20405;-60
2022/12/18 08:51:06;;;;;;;;;;;;;;;-5.36;91.57;102543.22;5092767;28;19916;-57
2022/12/18 08:53:32;;;;;;;;;;;;;;;-5.31;91.72;102549.19;5086622;28;19923;-55
2022/12/18 08:55:57;;;;;;;;;;;;;;;-5.24;91.75;102553.38;5083062;28;20419;-56
2022/12/18 08:58:22;;;;;;;;;;;;;;;-5.15;91.81;102554.94;5091222;28;19923;-58
2022/12/18 09:00:47;;;;;;;;;;;;;;;-5.06;91.74;102558.22;5086304;28;19919;-56
2022/12/18 09:03:13;;;;;;;;;;;;;;;-4.98;91.73;102547.69;5084033;28;19929;-53
2022/12/18 09:05:38;;;;;;;;;;;;;;;-4.92;91.54;102549.31;5088700;28;19994;-57
2022/12/18 09:08:04;;;;;;;;;;;;;;;-4.88;91.60;102551.00;5082521;28;20003;-59
2022/12/18 09:10:29;;;;;;;;;;;;;;;-4.82;91.70;102556.91;5093476;28;20403;-57
2022/12/18 09:12:55;;;;;;;;;;;;;;;-4.79;91.60;102556.84;5088699;28;19912;-54
2022/12/18 09:15:21;;;;;;;;;;;;;;;-4.76;91.48;102558.50;5091166;28;19912;-56
2022/12/18 09:17:46;;;;;;;;;;;;;;;-4.71;91.41;102570.47;5085914;28;19920;-57
2022/12/18 09:20:11;;;;;;;;;;;;;;;-4.67;91.42;102571.28;5085094;28;19912;-58
2022/12/18 09:22:36;;;;;;;;;;;;;;;-4.67;91.45;102577.31;5089383;28;19935;-54
2022/12/18 09:25:07;;;;;;;;;;;;;;;-4.64;91.47;102581.56;5089866;28;19912;-56
2022/12/18 09:27:32;;;;;;;;;;;;;;;-4.59;91.58;102586.69;5082809;28;20455;-56
2022/12/18 09:29:57;;;;;;;;;;;;;;;-4.56;91.49;102591.81;5080148;28;19916;-57
2022/12/18 09:32:23;;;;;;;;;;;;;;;-4.54;91.52;102585.72;5085743;28;19967;-57
2022/12/18 09:34:48;;;;;;;;;;;;;;;-4.50;91.63;102564.03;5086938;28;20384;-56
2022/12/18 09:37:13;;;;;;;;;;;;;;;-4.46;91.65;102559.63;5087019;28;19923;-54
2022/12/18 09:39:38;;;;;;;;;;;;;;;-4.40;91.68;102552.56;5083549;28;19946;-58
2022/12/18 09:42:04;;;;;;;;;;;;;;;-4.35;91.60;102542.09;5089870;28;19999;-58
2022/12/18 09:44:40;;;;;;;;;;;;;;;-4.30;91.59;102535.09;5090413;28;19923;-58
2022/12/18 09:47:08;;;;;;;;;;;;;;;-4.27;91.68;102537.59;5087869;28;19916;-57
2022/12/18 09:49:35;;;;;;;;;;;;;;;-4.23;91.57;102540.97;5089373;28;20393;-55
2022/12/18 09:52:05;;;;;;;;;;;;;;;-4.18;91.56;102533.94;5089349;28;19912;-57
2022/12/18 09:54:38;;;;;;;;;;;;;;;-4.13;91.63;102522.56;5090172;28;20382;-57
2022/12/18 09:57:03;;;;;;;;;;;;;;;-4.07;91.70;102516.38;5088541;28;20080;-55
2022/12/18 09:59:39;;;;;;;;;;;;;;;-4.01;91.54;102515.41;5082836;28;19916;-61
2022/12/18 10:02:18;;;;;;;;;;;;;;;-3.97;91.65;102523.06;5088332;28;19963;-58
2022/12/18 10:04:48;;;;;;;;;;;;;;;-3.93;91.46;102524.72;5090137;28;20390;-56
2022/12/18 10:07:19;;;;;;;;;;;;;;;-3.88;91.47;102532.38;5088506;28;19924;-56
2022/12/18 10:09:54;;;;;;;;;;;;;;;-3.83;91.71;102533.13;5080825;28;19970;-55
2022/12/18 10:12:25;;;;;;;;;;;;;;;-3.76;91.50;102526.88;5080820;28;19927;-57
2022/12/18 10:14:58;;;;;;;;;;;;;;;-3.69;91.51;102530.19;5087934;28;19965;-59
2022/12/18 10:17:30;;;;;;;;;;;;;;;-3.67;91.57;102520.63;5086870;28;20456;-58
2022/12/18 10:20:04;;;;;;;;;;;;;;;-3.63;91.44;102520.50;5085901;28;20287;-56
2022/12/18 10:22:44;;;;;;;;;;;;;;;-3.59;91.43;102522.13;5087019;28;19995;-58
2022/12/18 10:25:16;;;;;;;;;;;;;;;-3.55;91.43;102528.94;5085258;28;20288;-57
2022/12/18 10:27:42;;;;;;;;;;;;;;;-3.49;91.43;102530.53;5086549;28;20444;-58
2022/12/18 10:30:17;;;;;;;;;;;;;;;-3.46;91.27;102523.53;5086616;28;19920;-57
2022/12/18 10:32:42;;;;;;;;;;;;;;;-3.40;91.09;102511.28;5082488;28;19924;-55
2022/12/18 10:35:15;;;;;;;;;;;;;;;-3.38;91.08;102504.31;5091844;28;19935;-59
2022/12/18 10:37:58;;;;;;;;;;;;;;;-3.34;90.95;102498.97;5091749;28;20286;-60
2022/12/18 10:40:23;;;;;;;;;;;;;;;-3.27;90.96;102491.88;5080157;28;19938;-58
2022/12/18 10:43:05;;;;;;;;;;;;;;;-3.25;90.85;102484.88;5087897;28;20380;-57
2022/12/18 10:45:31;;;;;;;;;;;;;;;-3.21;90.77;102473.50;5084744;28;19927;-59
2022/12/18 10:47:57;;;;;;;;;;;;;;;-3.19;90.69;102469.97;5086304;28;20303;-58
2022/12/18 10:50:26;;;;;;;;;;;;;;;-3.11;90.80;102469.78;5085444;28;20402;-55
2022/12/18 10:52:56;;;;;;;;;;;;;;;-3.05;90.75;102459.22;5088895;28;20554;-56
2022/12/18 10:55:21;;;;;;;;;;;;;;;-3.03;90.63;102461.75;5089018;28;19916;-56
2022/12/18 10:57:46;;;;;;;;;;;;;;;-3.03;90.52;102456.56;5081179;28;20429;-57
2022/12/18 11:00:37;;;;;;;;;;;;;;;-3.01;90.49;102457.38;5086994;28;20010;-56
2022/12/18 11:03:23;;;;;;;;;;;;;;;-2.99;90.53;102448.63;5085962;28;20280;-57
2022/12/18 11:06:00;;;;;;;;;;;;;;;-2.94;90.48;102451.94;5079039;28;19921;-60
2022/12/18 11:08:25;;;;;;;;;;;;;;;-2.90;90.29;102450.97;5086149;28;19929;-58
2022/12/18 11:10:50;;;;;;;;;;;;;;;-2.87;90.36;102450.03;5079508;28;19924;-58
2022/12/18 11:13:23;;;;;;;;;;;;;;;-2.83;90.37;102455.09;5085583;28;19943;-55
2022/12/18 11:15:49;;;;;;;;;;;;;;;-2.78;90.32;102452.38;5086411;28;19920;-58
2022/12/18 11:18:31;;;;;;;;;;;;;;;-2.76;90.13;102453.16;5087228;28;19915;-56
2022/12/18 11:21:07;;;;;;;;;;;;;;;-2.73;89.98;102447.03;5085409;28;19938;-59
2022/12/18 11:23:33;;;;;;;;;;;;;;;-2.67;89.83;102439.03;5089226;28;20422;-55
2022/12/18 11:25:59;;;;;;;;;;;;;;;-2.64;89.90;102441.53;5082421;28;19924;-59
2022/12/18 11:28:27;;;;;;;;;;;;;;;-2.57;89.72;102430.94;5079930;28;19916;-60
2022/12/18 11:31:09;;;;;;;;;;;;;;;-2.57;89.83;102432.69;5086081;28;19963;-57
2022/12/18 11:33:35;;;;;;;;;;;;;;;-2.48;89.85;102436.72;5079891;28;20326;-56
2022/12/18 11:36:05;;;;;;;;;;;;;;;-2.50;89.68;102429.81;5077558;28;19916;-56
2022/12/18 11:38:34;;;;;;;;;;;;;;;-2.45;89.72;102436.63;5082820;28;19955;-56
2022/12/18 11:41:03;;;;;;;;;;;;;;;-2.40;89.76;102432.97;5082329;28;19923;-57
2022/12/18 11:43:32;;;;;;;;;;;;;;;-2.36;89.79;102423.31;5082779;28;20399;-56
2022/12/18 11:46:18;;;;;;;;;;;;;;;-2.36;89.48;102424.19;5083853;28;20406;-58
2022/12/18 11:48:54;;;;;;;;;;;;;;;-2.34;89.39;102419.78;5080072;28;19947;-58
2022/12/18 11:51:26;;;;;;;;;;;;;;;-2.31;89.27;102417.09;5075407;28;19924;-59
2022/12/18 11:53:51;;;;;;;;;;;;;;;-2.28;89.28;102405.75;5078081;28;19917;-61
2022/12/18 11:56:29;;;;;;;;;;;;;;;-2.24;89.53;102408.19;5081175;28;20445;-58
2022/12/18 11:59:06;;;;;;;;;;;;;;;-2.19;89.38;102405.44;5079204;28;19924;-59
2022/12/18 12:01:38;;;;;;;;;;;;;;;-2.17;88.89;102403.63;5086395;28;19916;-57
2022/12/18 12:04:09;;;;;;;;;;;;;;;-2.11;89.02;102402.56;5085507;28;21527;-59
2022/12/18 12:06:40;;;;;;;;;;;;;;;-2.10;89.01;102396.47;5085658;28;19920;-57
2022/12/18 12:09:17;;;;;;;;;;;;;;;-2.05;89.11;102392.81;5090335;28;19943;-56
2022/12/18 12:11:50;;;;;;;;;;;;;;;-2.02;89.17;102387.53;5089539;28;19990;-58
2022/12/18 12:14:15;;;;;;;;;;;;;;;-2.01;89.29;102372.75;5083980;28;19916;-55
2022/12/18 12:17:06;;;;;;;;;;;;;;;-2.00;89.15;102371.84;5089254;28;21300;-58
2022/12/18 12:19:43;;;;;;;;;;;;;;;-1.97;89.10;102369.97;5087047;28;19954;-57
2022/12/18 12:22:27;;;;;;;;;;;;;;;-1.95;88.67;102352.56;5083062;28;19916;-57
2022/12/18 12:25:15;;;;;;;;;;;;;;;-1.88;88.90;102361.00;5083349;28;19924;-54
2022/12/18 12:27:53;;;;;;;;;;;;;;;-1.88;88.88;102355.78;5084647;28;20011;-53
2022/12/18 12:30:32;;;;;;;;;;;;;;;-1.88;88.92;102353.19;5077697;28;19916;-56
2022/12/18 12:33:16;;;;;;;;;;;;;;;-1.84;88.71;102353.94;5086096;28;19921;-58
2022/12/18 12:36:00;;;;;;;;;;;;;;;-1.84;88.69;102346.13;5100136;28;20354;-56
2022/12/18 12:38:28;;;;;;;;;;;;;;;-1.82;88.52;102333.88;5089423;28;19920;-56
2022/12/18 12:40:59;;;;;;;;;;;;;;;-1.78;88.72;102330.28;5085350;28;20372;-57
2022/12/18 12:43:33;;;;;;;;;;;;;;;-1.77;88.72;102327.59;5090678;28;19927;-55
2022/12/18 12:46:04;;;;;;;;;;;;;;;-1.75;88.51;102318.00;5080084;28;19948;-57